Terminal Aerodrome Forecast
Issued by NWS Lubbock, TX

Home | Current Version | Previous Version | Text Only | Print | Product List | Glossary On
Versions: 1 2 3 4 5 6 7 8 9 10 11 12 13 14 15 16 17
000
FTUS44 KLUB 040500
TAFLBB
TAF
KLBB 040500Z 0406/0506 17011KT P6SM SCT120 BKN200
     FM041200 18013KT P6SM SCT007 OVC012
     FM041700 16016G24KT P6SM SCT030 BKN150
     FM042100 15019G25KT P6SM -TSRA BKN040CB PROB30 0500/0506 1/2SM
      +TSRA=

USA.gov is the U.S. government's official web portal to all federal, state and local government web resources and services.